TRA172 GVBA-GOBD
Flight info
| Callsign | TRA172 |
|---|---|
| Flight time | N/A |
| Altitude | 37000 |
| Route | POLMO1J POLMO DCT LUMPO DCT LIGOV LIGOV1A |
| Aircraft | A321/M-SDE3FGHIRWY/LB1 |
Departure
| Time | 2026-04-30 15:08 |
|---|---|
| Airport | Aristides Pereira International Airport (GVBA) |
Arrival
| Time | N/A |
|---|---|
| Airport | Blaise Diagne International Airport (GOBD) |
| Time | Latitude | Longitude | Altitude | Speed | Heading |
|---|---|---|---|---|---|
| 2026-04-30 15:04 | 16.13518 | -22.89030 | 61 ft | 2 kts | 199° |
| 2026-04-30 15:04 | 16.13469 | -22.89002 | 58 ft | 5 kts | 118° |
| 2026-04-30 15:05 | 16.13347 | -22.88980 | 57 ft | 10 kts | 194° |
| 2026-04-30 15:06 | 16.13192 | -22.89028 | 59 ft | 12 kts | 198° |
| 2026-04-30 15:06 | 16.13043 | -22.89074 | 57 ft | 11 kts | 196° |
| 2026-04-30 15:07 | 16.12913 | -22.89150 | 62 ft | 11 kts | 216° |
| 2026-04-30 15:07 | 16.12845 | -22.89142 | 61 ft | 5 kts | 57° |
| 2026-04-30 15:08 | 16.12915 | -22.89114 | 58 ft | 45 kts | 17° |
| 2026-04-30 15:08 | 16.16021 | -22.88029 | 2185 ft | 201 kts | 29° |
| 2026-04-30 15:09 | 16.17666 | -22.85213 | 4432 ft | 258 kts | 71° |
| 2026-04-30 15:09 | 16.18758 | -22.81507 | 6555 ft | 274 kts | 73° |
| 2026-04-30 15:10 | 16.19962 | -22.77669 | 8799 ft | 284 kts | 71° |
| 2026-04-30 15:11 | 16.22657 | -22.70090 | 11972 ft | 327 kts | 69° |
| 2026-04-30 15:11 | 16.24577 | -22.64846 | 14272 ft | 339 kts | 69° |
| 2026-04-30 15:12 | 16.26856 | -22.58585 | 16701 ft | 352 kts | 69° |
| 2026-04-30 15:13 | 16.28031 | -22.53586 | 18402 ft | 362 kts | 87° |
| 2026-04-30 15:14 | 16.27990 | -22.42849 | 21594 ft | 380 kts | 90° |
| 2026-04-30 15:14 | 16.27945 | -22.34465 | 23724 ft | 392 kts | 90° |
| 2026-04-30 15:16 | 16.27869 | -22.19922 | 26772 ft | 411 kts | 90° |
| 2026-04-30 15:17 | 16.27793 | -22.07803 | 28939 ft | 426 kts | 90° |
| 2026-04-30 15:18 | 16.27683 | -21.92157 | 31351 ft | 440 kts | 90° |
| 2026-04-30 15:19 | 16.27619 | -21.82608 | 33208 ft | 436 kts | 90° |